sensor_id;sensor_type;location;lat;lon;timestamp;pressure;altitude;pressure_sealevel;temperature;humidity
62655;BME280;48717;55.556;37.816;2024-03-23T00:54:57;98504.69;;;0.65;85.16
62655;BME280;48717;55.556;37.816;2024-03-23T00:57:23;98512.53;;;0.70;85.66
62655;BME280;48717;55.556;37.816;2024-03-23T00:59:49;98512.63;;;0.74;85.16
62655;BME280;48717;55.556;37.816;2024-03-23T01:02:16;98509.09;;;0.71;84.95
62655;BME280;48717;55.556;37.816;2024-03-23T01:04:42;98494.41;;;0.71;85.44
62655;BME280;48717;55.556;37.816;2024-03-23T01:07:08;98478.72;;;0.63;85.48
62655;BME280;48717;55.556;37.816;2024-03-23T01:09:34;98488.34;;;0.72;85.71
62655;BME280;48717;55.556;37.816;2024-03-23T01:12:01;98487.47;;;0.70;85.79
62655;BME280;48717;55.556;37.816;2024-03-23T01:14:27;98477.06;;;0.69;86.36
62655;BME280;48717;55.556;37.816;2024-03-23T01:16:54;98490.97;;;0.72;86.30
62655;BME280;48717;55.556;37.816;2024-03-23T01:19:20;98492.69;;;0.72;86.85
62655;BME280;48717;55.556;37.816;2024-03-23T01:21:46;98487.47;;;0.70;87.25
62655;BME280;48717;55.556;37.816;2024-03-23T01:24:12;98484.78;;;0.65;88.32
62655;BME280;48717;55.556;37.816;2024-03-23T01:26:38;98475.22;;;0.63;88.68
62655;BME280;48717;55.556;37.816;2024-03-23T01:29:05;98484.69;;;0.59;88.17
62655;BME280;48717;55.556;37.816;2024-03-23T01:31:31;98464.72;;;0.55;88.65
62655;BME280;48717;55.556;37.816;2024-03-23T01:33:58;98469.13;;;0.59;89.24
62655;BME280;48717;55.556;37.816;2024-03-23T01:36:24;98457.00;;;0.60;89.41
62655;BME280;48717;55.556;37.816;2024-03-23T01:38:50;98452.75;;;0.62;89.09
62655;BME280;48717;55.556;37.816;2024-03-23T01:41:17;98463.13;;;0.62;89.56
62655;BME280;48717;55.556;37.816;2024-03-23T01:43:43;98460.59;;;0.65;90.06
62655;BME280;48717;55.556;37.816;2024-03-23T01:46:11;98445.03;;;0.65;89.70
62655;BME280;48717;55.556;37.816;2024-03-23T01:48:37;98452.81;;;0.65;89.48
62655;BME280;48717;55.556;37.816;2024-03-23T01:51:03;98449.44;;;0.72;88.96
62655;BME280;48717;55.556;37.816;2024-03-23T01:53:30;98440.84;;;0.76;89.34
62655;BME280;48717;55.556;37.816;2024-03-23T01:55:56;98425.25;;;0.73;88.68
62655;BME280;48717;55.556;37.816;2024-03-23T01:58:23;98433.03;;;0.75;89.39
62655;BME280;48717;55.556;37.816;2024-03-23T02:00:49;98421.84;;;0.77;89.76
62655;BME280;48717;55.556;37.816;2024-03-23T02:03:23;98425.34;;;0.80;89.68
62655;BME280;48717;55.556;37.816;2024-03-23T02:05:51;98407.78;;;0.63;89.75
62655;BME280;48717;55.556;37.816;2024-03-23T02:08:20;98421.84;;;0.77;90.05
62655;BME280;48717;55.556;37.816;2024-03-23T02:10:51;98413.25;;;0.82;90.34
62655;BME280;48717;55.556;37.816;2024-03-23T02:13:19;98419.22;;;0.74;91.17
62655;BME280;48717;55.556;37.816;2024-03-23T02:15:47;98415.84;;;0.80;90.96
62655;BME280;48717;55.556;37.816;2024-03-23T02:18:13;98419.28;;;0.79;90.72
62655;BME280;48717;55.556;37.816;2024-03-23T02:20:40;98411.53;;;0.81;91.79
62655;BME280;48717;55.556;37.816;2024-03-23T02:23:13;98376.72;;;0.66;92.21
62655;BME280;48717;55.556;37.816;2024-03-23T02:25:39;98401.09;;;0.77;92.23
62655;BME280;48717;55.556;37.816;2024-03-23T02:28:06;98396.59;;;0.65;92.81
62655;BME280;48717;55.556;37.816;2024-03-23T02:30:32;98387.22;;;0.75;93.22
62655;BME280;48717;55.556;37.816;2024-03-23T02:32:58;98388.06;;;0.73;93.95
62655;BME280;48717;55.556;37.816;2024-03-23T02:35:24;98393.28;;;0.74;94.06
62655;BME280;48717;55.556;37.816;2024-03-23T02:37:51;98394.94;;;0.71;94.17
62655;BME280;48717;55.556;37.816;2024-03-23T02:40:19;98354.22;;;0.65;94.41
62655;BME280;48717;55.556;37.816;2024-03-23T02:42:46;98358.59;;;0.69;94.90
62655;BME280;48717;55.556;37.816;2024-03-23T02:45:12;98363.91;;;0.77;94.85
62655;BME280;48717;55.556;37.816;2024-03-23T02:47:38;98369.16;;;0.80;94.99
62655;BME280;48717;55.556;37.816;2024-03-23T02:50:05;98334.44;;;0.73;94.98
62655;BME280;48717;55.556;37.816;2024-03-23T02:52:32;98343.13;;;0.75;94.60
62655;BME280;48717;55.556;37.816;2024-03-23T02:54:58;98344.16;;;0.87;95.12
62655;BME280;48717;55.556;37.816;2024-03-23T02:57:24;98349.34;;;0.87;95.07
62655;BME280;48717;55.556;37.816;2024-03-23T02:59:50;98342.50;;;0.92;94.40
62655;BME280;48717;55.556;37.816;2024-03-23T03:02:17;98326.06;;;0.93;93.89
62655;BME280;48717;55.556;37.816;2024-03-23T03:04:43;98334.78;;;0.98;93.51
62655;BME280;48717;55.556;37.816;2024-03-23T03:07:09;98306.19;;;0.97;93.76
62655;BME280;48717;55.556;37.816;2024-03-23T03:09:35;98321.84;;;1.01;93.22
62655;BME280;48717;55.556;37.816;2024-03-23T03:12:02;98314.13;;;1.04;93.67
62655;BME280;48717;55.556;37.816;2024-03-23T03:14:29;98309.84;;;1.10;92.90
62655;BME280;48717;55.556;37.816;2024-03-23T03:16:55;98284.59;;;0.99;93.37
62655;BME280;48717;55.556;37.816;2024-03-23T03:19:21;98325.50;;;1.16;92.85
62655;BME280;48717;55.556;37.816;2024-03-23T03:21:49;98289.09;;;1.10;92.45
62655;BME280;48717;55.556;37.816;2024-03-23T03:24:16;98295.25;;;1.18;93.11
62655;BME280;48717;55.556;37.816;2024-03-23T03:26:43;98278.72;;;1.14;92.42
62655;BME280;48717;55.556;37.816;2024-03-23T03:29:09;98279.78;;;1.29;92.61
62655;BME280;48717;55.556;37.816;2024-03-23T03:31:36;98284.97;;;1.29;92.21
62655;BME280;48717;55.556;37.816;2024-03-23T03:34:02;98286.75;;;1.32;92.16
62655;BME280;48717;55.556;37.816;2024-03-23T03:36:29;98265.88;;;1.22;92.16
62655;BME280;48717;55.556;37.816;2024-03-23T03:38:55;98273.72;;;1.28;92.19
62655;BME280;48717;55.556;37.816;2024-03-23T03:41:21;98276.34;;;1.32;92.41
62655;BME280;48717;55.556;37.816;2024-03-23T03:43:47;98258.19;;;1.32;92.46
62655;BME280;48717;55.556;37.816;2024-03-23T03:46:14;98269.47;;;1.35;92.60
62655;BME280;48717;55.556;37.816;2024-03-23T03:48:40;98253.81;;;1.27;92.62
62655;BME280;48717;55.556;37.816;2024-03-23T03:51:06;98265.19;;;1.42;92.30
62655;BME280;48717;55.556;37.816;2024-03-23T03:53:33;98245.25;;;1.38;92.54
62655;BME280;48717;55.556;37.816;2024-03-23T03:56:02;98265.19;;;1.40;93.26
62655;BME280;48717;55.556;37.816;2024-03-23T03:58:28;98253.94;;;1.43;92.65
62655;BME280;48717;55.556;37.816;2024-03-23T04:00:55;98243.50;;;1.37;93.25
62655;BME280;48717;55.556;37.816;2024-03-23T04:03:21;98273.84;;;1.41;93.25
62655;BME280;48717;55.556;37.816;2024-03-23T04:05:54;98223.50;;;1.29;93.56
62655;BME280;48717;55.556;37.816;2024-03-23T04:08:21;98249.63;;;1.43;93.86
62655;BME280;48717;55.556;37.816;2024-03-23T04:10:47;98237.50;;;1.41;93.79
62655;BME280;48717;55.556;37.816;2024-03-23T04:13:14;98239.28;;;1.45;94.09
62655;BME280;48717;55.556;37.816;2024-03-23T04:15:40;98228.78;;;1.39;94.15
62655;BME280;48717;55.556;37.816;2024-03-23T04:18:07;98224.50;;;1.44;94.37
62655;BME280;48717;55.556;37.816;2024-03-23T04:20:33;98219.41;;;1.50;94.29
62655;BME280;48717;55.556;37.816;2024-03-23T04:23:00;98215.91;;;1.50;94.29
62655;BME280;48717;55.556;37.816;2024-03-23T04:25:26;98201.25;;;1.56;94.20
62655;BME280;48717;55.556;37.816;2024-03-23T04:27:53;98205.56;;;1.53;94.20
62655;BME280;48717;55.556;37.816;2024-03-23T04:30:19;98206.44;;;1.52;94.23
62655;BME280;48717;55.556;37.816;2024-03-23T04:32:45;98199.53;;;1.55;94.66
62655;BME280;48717;55.556;37.816;2024-03-23T04:35:11;98182.19;;;1.54;94.22
62655;BME280;48717;55.556;37.816;2024-03-23T04:37:39;98190.91;;;1.60;94.53
62655;BME280;48717;55.556;37.816;2024-03-23T04:40:09;98211.72;;;1.66;94.84
62655;BME280;48717;55.556;37.816;2024-03-23T04:42:37;98157.09;;;1.58;94.37
62655;BME280;48717;55.556;37.816;2024-03-23T04:45:04;98178.84;;;1.68;94.69
62655;BME280;48717;55.556;37.816;2024-03-23T04:47:32;98164.97;;;1.66;94.37
62655;BME280;48717;55.556;37.816;2024-03-23T04:49:58;98178.88;;;1.71;95.09
62655;BME280;48717;55.556;37.816;2024-03-23T04:52:25;98167.56;;;1.66;94.65
62655;BME280;48717;55.556;37.816;2024-03-23T04:54:51;98172.00;;;1.76;95.17
62655;BME280;48717;55.556;37.816;2024-03-23T04:57:18;98172.03;;;1.82;95.33
62655;BME280;48717;55.556;37.816;2024-03-23T04:59:47;98152.09;;;1.80;95.43
62655;BME280;48717;55.556;37.816;2024-03-23T05:02:14;98172.00;;;1.79;95.25
62655;BME280;48717;55.556;37.816;2024-03-23T05:04:41;98191.09;;;1.81;96.25
62655;BME280;48717;55.556;37.816;2024-03-23T05:07:08;98156.50;;;1.89;96.08
62655;BME280;48717;55.556;37.816;2024-03-23T05:09:34;98183.34;;;1.89;96.50
62655;BME280;48717;55.556;37.816;2024-03-23T05:12:01;98151.28;;;1.89;96.30
62655;BME280;48717;55.556;37.816;2024-03-23T05:14:28;98140.94;;;1.95;96.50
62655;BME280;48717;55.556;37.816;2024-03-23T05:16:55;98146.97;;;1.92;96.34
62655;BME280;48717;55.556;37.816;2024-03-23T05:19:21;98114.81;;;1.75;96.37
62655;BME280;48717;55.556;37.816;2024-03-23T05:21:48;98127.00;;;1.87;96.73
62655;BME280;48717;55.556;37.816;2024-03-23T05:24:15;98156.53;;;1.95;97.18
62655;BME280;48717;55.556;37.816;2024-03-23T05:26:41;98154.66;;;1.78;97.38
62655;BME280;48717;55.556;37.816;2024-03-23T05:29:08;98142.63;;;1.90;97.48
62655;BME280;48717;55.556;37.816;2024-03-23T05:31:37;98153.91;;;1.92;98.32
62655;BME280;48717;55.556;37.816;2024-03-23T05:34:03;98142.63;;;1.93;98.70
62655;BME280;48717;55.556;37.816;2024-03-23T05:36:30;98132.22;;;1.90;98.82
62655;BME280;48717;55.556;37.816;2024-03-23T05:38:56;98114.81;;;1.76;99.12
62655;BME280;48717;55.556;37.816;2024-03-23T05:41:23;98127.00;;;1.87;99.88
62655;BME280;48717;55.556;37.816;2024-03-23T05:43:50;98137.38;;;1.83;100.00
62655;BME280;48717;55.556;37.816;2024-03-23T05:46:16;98134.81;;;1.87;100.00
62655;BME280;48717;55.556;37.816;2024-03-23T05:48:44;98128.72;;;1.81;100.00
62655;BME280;48717;55.556;37.816;2024-03-23T05:51:10;98114.00;;;1.82;100.00
62655;BME280;48717;55.556;37.816;2024-03-23T05:53:38;98114.84;;;1.81;100.00
62655;BME280;48717;55.556;37.816;2024-03-23T05:56:05;98114.84;;;1.82;100.00
62655;BME280;48717;55.556;37.816;2024-03-23T05:58:32;98104.44;;;1.82;100.00
62655;BME280;48717;55.556;37.816;2024-03-23T06:01:00;98036.63;;;1.42;100.00
62655;BME280;48717;55.556;37.816;2024-03-23T06:03:29;98112.25;;;1.82;100.00
62655;BME280;48717;55.556;37.816;2024-03-23T06:05:56;98118.31;;;1.86;100.00
62655;BME280;48717;55.556;37.816;2024-03-23T06:08:22;98106.19;;;1.82;100.00
62655;BME280;48717;55.556;37.816;2024-03-23T06:10:51;98097.53;;;1.81;100.00
62655;BME280;48717;55.556;37.816;2024-03-23T06:13:18;98102.69;;;1.78;100.00
62655;BME280;48717;55.556;37.816;2024-03-23T06:15:44;98118.31;;;1.81;100.00
62655;BME280;48717;55.556;37.816;2024-03-23T06:18:13;98086.25;;;1.78;100.00
62655;BME280;48717;55.556;37.816;2024-03-23T06:20:39;98089.72;;;1.81;100.00
62655;BME280;48717;55.556;37.816;2024-03-23T06:23:06;98087.09;;;1.78;100.00
62655;BME280;48717;55.556;37.816;2024-03-23T06:25:33;98072.31;;;1.73;100.00
62655;BME280;48717;55.556;37.816;2024-03-23T06:27:59;98073.25;;;1.81;100.00
62655;BME280;48717;55.556;37.816;2024-03-23T06:30:27;98072.41;;;1.82;100.00
62655;BME280;48717;55.556;37.816;2024-03-23T06:32:53;98084.56;;;1.85;100.00
62655;BME280;48717;55.556;37.816;2024-03-23T06:35:21;98059.41;;;1.83;100.00
62655;BME280;48717;55.556;37.816;2024-03-23T06:37:47;98088.91;;;1.89;100.00
62655;BME280;48717;55.556;37.816;2024-03-23T06:40:14;98069.00;;;1.94;100.00
62655;BME280;48717;55.556;37.816;2024-03-23T06:42:41;98061.22;;;1.94;100.00
62655;BME280;48717;55.556;37.816;2024-03-23T06:45:07;98074.19;;;1.97;100.00
62655;BME280;48717;55.556;37.816;2024-03-23T06:47:34;98069.00;;;1.97;100.00
62655;BME280;48717;55.556;37.816;2024-03-23T06:50:04;98075.09;;;1.99;100.00
62655;BME280;48717;55.556;37.816;2024-03-23T06:52:32;98064.69;;;1.96;100.00
62655;BME280;48717;55.556;37.816;2024-03-23T06:54:59;98073.38;;;1.98;100.00
62655;BME280;48717;55.556;37.816;2024-03-23T06:57:25;98062.97;;;1.98;100.00
62655;BME280;48717;55.556;37.816;2024-03-23T06:59:51;98056.06;;;2.03;100.00
62655;BME280;48717;55.556;37.816;2024-03-23T07:02:17;98071.63;;;2.00;100.00
62655;BME280;48717;55.556;37.816;2024-03-23T07:04:44;98051.72;;;2.07;100.00
62655;BME280;48717;55.556;37.816;2024-03-23T07:07:10;98049.16;;;2.08;100.00
62655;BME280;48717;55.556;37.816;2024-03-23T07:09:37;98064.69;;;1.99;100.00
62655;BME280;48717;55.556;37.816;2024-03-23T07:12:04;98030.03;;;2.00;100.00
62655;BME280;48717;55.556;37.816;2024-03-23T07:14:31;97995.34;;;1.95;100.00
62655;BME280;48717;55.556;37.816;2024-03-23T07:16:58;98030.97;;;2.12;100.00
62655;BME280;48717;55.556;37.816;2024-03-23T07:19:24;98033.56;;;2.15;100.00
62655;BME280;48717;55.556;37.816;2024-03-23T07:21:51;98027.50;;;2.17;100.00
62655;BME280;48717;55.556;37.816;2024-03-23T07:24:18;98024.03;;;2.21;100.00
62655;BME280;48717;55.556;37.816;2024-03-23T07:26:44;98008.47;;;2.18;100.00
62655;BME280;48717;55.556;37.816;2024-03-23T07:29:12;98009.34;;;2.28;100.00
62655;BME280;48717;55.556;37.816;2024-03-23T07:31:38;98005.88;;;2.26;100.00
62655;BME280;48717;55.556;37.816;2024-03-23T07:34:05;98018.00;;;2.27;100.00
62655;BME280;48717;55.556;37.816;2024-03-23T07:36:32;98004.09;;;2.19;100.00
62655;BME280;48717;55.556;37.816;2024-03-23T07:38:58;98022.34;;;2.31;100.00
62655;BME280;48717;55.556;37.816;2024-03-23T07:41:25;98040.59;;;2.34;100.00
62655;BME280;48717;55.556;37.816;2024-03-23T07:43:53;98011.09;;;2.29;100.00
62655;BME280;48717;55.556;37.816;2024-03-23T07:46:20;98008.50;;;2.29;100.00
62655;BME280;48717;55.556;37.816;2024-03-23T07:48:46;98005.91;;;2.35;100.00
62655;BME280;48717;55.556;37.816;2024-03-23T07:51:21;98003.28;;;2.35;100.00
62655;BME280;48717;55.556;37.816;2024-03-23T07:53:48;98007.63;;;2.33;100.00
62655;BME280;48717;55.556;37.816;2024-03-23T07:56:16;98008.50;;;2.29;100.00
62655;BME280;48717;55.556;37.816;2024-03-23T07:58:43;97995.50;;;2.29;100.00
62655;BME280;48717;55.556;37.816;2024-03-23T08:01:11;97992.00;;;2.35;100.00
62655;BME280;48717;55.556;37.816;2024-03-23T08:03:40;98005.00;;;2.35;100.00
62655;BME280;48717;55.556;37.816;2024-03-23T08:08:34;97998.09;;;2.35;100.00
62655;BME280;48717;55.556;37.816;2024-03-23T08:11:01;97995.50;;;2.39;100.00
62655;BME280;48717;55.556;37.816;2024-03-23T08:13:28;98011.06;;;2.26;100.00
62655;BME280;48717;55.556;37.816;2024-03-23T08:15:58;97990.31;;;2.39;100.00
62655;BME280;48717;55.556;37.816;2024-03-23T08:18:24;98000.72;;;2.46;100.00
62655;BME280;48717;55.556;37.816;2024-03-23T08:23:28;97969.47;;;2.35;100.00
62655;BME280;48717;55.556;37.816;2024-03-23T08:25:58;97972.97;;;2.44;100.00
62655;BME280;48717;55.556;37.816;2024-03-23T08:28:25;97966.91;;;2.48;100.00
62655;BME280;48717;55.556;37.816;2024-03-23T08:30:53;97979.91;;;2.48;100.00
62655;BME280;48717;55.556;37.816;2024-03-23T08:33:20;97990.34;;;2.51;100.00
62655;BME280;48717;55.556;37.816;2024-03-23T08:38:19;97967.78;;;2.53;100.00
62655;BME280;48717;55.556;37.816;2024-03-23T08:40:46;97976.44;;;2.57;100.00
62655;BME280;48717;55.556;37.816;2024-03-23T08:43:12;97957.38;;;2.47;100.00
62655;BME280;48717;55.556;37.816;2024-03-23T08:45:38;97979.91;;;2.54;100.00
62655;BME280;48717;55.556;37.816;2024-03-23T08:48:05;97958.22;;;2.57;100.00
62655;BME280;48717;55.556;37.816;2024-03-23T08:50:31;97952.19;;;2.56;100.00
62655;BME280;48717;55.556;37.816;2024-03-23T08:52:58;97940.91;;;2.57;100.00
62655;BME280;48717;55.556;37.816;2024-03-23T08:55:24;97954.78;;;2.66;100.00
62655;BME280;48717;55.556;37.816;2024-03-23T08:57:50;97952.19;;;2.66;100.00
62655;BME280;48717;55.556;37.816;2024-03-23T09:00:17;97951.31;;;2.64;100.00
62655;BME280;48717;55.556;37.816;2024-03-23T09:02:47;97927.00;;;2.58;100.00
62655;BME280;48717;55.556;37.816;2024-03-23T09:05:13;97950.47;;;2.65;100.00
62655;BME280;48717;55.556;37.816;2024-03-23T09:07:40;97936.59;;;2.69;100.00
62655;BME280;48717;55.556;37.816;2024-03-23T09:10:07;97930.50;;;2.73;100.00
62655;BME280;48717;55.556;37.816;2024-03-23T09:12:33;97945.25;;;2.74;100.00
62655;BME280;48717;55.556;37.816;2024-03-23T09:15:00;97960.00;;;2.75;100.00
62655;BME280;48717;55.556;37.816;2024-03-23T09:17:26;97931.38;;;2.78;100.00
62655;BME280;48717;55.556;37.816;2024-03-23T09:19:52;97930.50;;;2.78;100.00
62655;BME280;48717;55.556;37.816;2024-03-23T09:22:18;97938.28;;;2.85;100.00
62655;BME280;48717;55.556;37.816;2024-03-23T09:24:45;97926.16;;;2.84;100.00
62655;BME280;48717;55.556;37.816;2024-03-23T09:27:11;97901.00;;;2.80;100.00
62655;BME280;48717;55.556;37.816;2024-03-23T09:29:37;97925.28;;;2.96;100.00
62655;BME280;48717;55.556;37.816;2024-03-23T09:32:04;97929.59;;;2.99;100.00
62655;BME280;48717;55.556;37.816;2024-03-23T09:34:30;97912.25;;;3.01;100.00
62655;BME280;48717;55.556;37.816;2024-03-23T09:36:56;97901.00;;;2.97;100.00
62655;BME280;48717;55.556;37.816;2024-03-23T09:39:23;97897.50;;;2.95;100.00
62655;BME280;48717;55.556;37.816;2024-03-23T09:41:49;97907.91;;;3.03;100.00
62655;BME280;48717;55.556;37.816;2024-03-23T09:44:15;97912.25;;;3.01;100.00
62655;BME280;48717;55.556;37.816;2024-03-23T09:46:42;97898.38;;;3.05;100.00
62655;BME280;48717;55.556;37.816;2024-03-23T09:49:08;97915.72;;;3.11;100.00
62655;BME280;48717;55.556;37.816;2024-03-23T09:51:38;97907.88;;;3.14;100.00
62655;BME280;48717;55.556;37.816;2024-03-23T09:54:04;97893.16;;;3.18;100.00
62655;BME280;48717;55.556;37.816;2024-03-23T09:56:30;97901.81;;;3.21;100.00
62655;BME280;48717;55.556;37.816;2024-03-23T09:59:01;97892.28;;;3.22;100.00
62655;BME280;48717;55.556;37.816;2024-03-23T10:01:32;97903.53;;;3.27;100.00
62655;BME280;48717;55.556;37.816;2024-03-23T10:03:58;97910.47;;;3.28;100.00
62655;BME280;48717;55.556;37.816;2024-03-23T10:06:24;97914.81;;;3.28;100.00
62655;BME280;48717;55.556;37.816;2024-03-23T10:08:52;97931.31;;;3.26;100.00
62655;BME280;48717;55.556;37.816;2024-03-23T10:11:18;97908.75;;;3.27;100.00
62655;BME280;48717;55.556;37.816;2024-03-23T10:13:47;97908.72;;;3.30;100.00
62655;BME280;48717;55.556;37.816;2024-03-23T10:16:24;97907.00;;;3.29;100.00
62655;BME280;48717;55.556;37.816;2024-03-23T10:18:50;97892.22;;;3.36;100.00
62655;BME280;48717;55.556;37.816;2024-03-23T10:21:16;97874.00;;;3.28;100.00
62655;BME280;48717;55.556;37.816;2024-03-23T10:23:44;97882.66;;;3.39;100.00
62655;BME280;48717;55.556;37.816;2024-03-23T10:26:21;97887.00;;;3.39;100.00
62655;BME280;48717;55.556;37.816;2024-03-23T10:28:57;97867.88;;;3.43;100.00
62655;BME280;48717;55.556;37.816;2024-03-23T10:31:25;97890.44;;;3.44;100.00
62655;BME280;48717;55.556;37.816;2024-03-23T10:33:52;97861.81;;;3.39;100.00
62655;BME280;48717;55.556;37.816;2024-03-23T10:36:23;97870.44;;;3.49;100.00
62655;BME280;48717;55.556;37.816;2024-03-23T10:38:50;97861.78;;;3.49;100.00
62655;BME280;48717;55.556;37.816;2024-03-23T10:41:18;97853.94;;;3.53;100.00
62655;BME280;48717;55.556;37.816;2024-03-23T10:43:46;97862.59;;;3.62;100.00
62655;BME280;48717;55.556;37.816;2024-03-23T10:46:13;97866.09;;;3.56;100.00
62655;BME280;48717;55.556;37.816;2024-03-23T10:48:41;97858.25;;;3.62;100.00
62655;BME280;48717;55.556;37.816;2024-03-23T10:51:09;97872.13;;;3.63;100.00
62655;BME280;48717;55.556;37.816;2024-03-23T10:53:36;97839.13;;;3.67;100.00
62655;BME280;48717;55.556;37.816;2024-03-23T10:56:04;97850.41;;;3.69;100.00
62655;BME280;48717;55.556;37.816;2024-03-23T10:58:34;97859.94;;;3.73;100.00
62655;BME280;48717;55.556;37.816;2024-03-23T11:01:03;97853.84;;;3.75;100.00
62655;BME280;48717;55.556;37.816;2024-03-23T11:05:56;97829.53;;;3.70;100.00
62655;BME280;48717;55.556;37.816;2024-03-23T11:08:36;97843.41;;;3.78;100.00
62655;BME280;48717;55.556;37.816;2024-03-23T11:11:19;97856.38;;;3.89;100.00
62655;BME280;48717;55.556;37.816;2024-03-23T11:13:50;97864.22;;;3.83;100.00
62655;BME280;48717;55.556;37.816;2024-03-23T11:16:24;97851.19;;;3.83;100.00
62655;BME280;48717;55.556;37.816;2024-03-23T11:18:54;97861.66;;;3.80;100.00
62655;BME280;48717;55.556;37.816;2024-03-23T11:21:52;97847.69;;;3.87;100.00
62655;BME280;48717;55.556;37.816;2024-03-23T11:24:22;97839.00;;;3.88;100.00
62655;BME280;48717;55.556;37.816;2024-03-23T11:26:48;97848.56;;;3.86;100.00
62655;BME280;48717;55.556;37.816;2024-03-23T11:29:16;97841.56;;;3.93;100.00
62655;BME280;48717;55.556;37.816;2024-03-23T11:31:52;97838.97;;;3.95;100.00
62655;BME280;48717;55.556;37.816;2024-03-23T11:34:19;97847.66;;;3.92;100.00
62655;BME280;48717;55.556;37.816;2024-03-23T11:36:47;97826.81;;;3.90;100.00
62655;BME280;48717;55.556;37.816;2024-03-23T11:39:17;97848.56;;;3.91;100.00
62655;BME280;48717;55.556;37.816;2024-03-23T11:41:56;97829.41;;;3.92;100.00
62655;BME280;48717;55.556;37.816;2024-03-23T11:44:25;97824.19;;;3.95;100.00
62655;BME280;48717;55.556;37.816;2024-03-23T11:46:52;97835.47;;;3.92;100.00
62655;BME280;48717;55.556;37.816;2024-03-23T11:49:26;97813.78;;;3.86;100.00
62655;BME280;48717;55.556;37.816;2024-03-23T11:51:55;97813.78;;;3.86;100.00
62655;BME280;48717;55.556;37.816;2024-03-23T11:54:23;97812.88;;;3.91;100.00
62655;BME280;48717;55.556;37.816;2024-03-23T11:57:01;97822.44;;;3.92;100.00
62655;BME280;48717;55.556;37.816;2024-03-23T11:59:38;97830.25;;;3.96;100.00
62655;BME280;48717;55.556;37.816;2024-03-23T12:02:10;97824.19;;;3.94;100.00
62655;BME280;48717;55.556;37.816;2024-03-23T12:04:40;97832.00;;;3.94;100.00
62655;BME280;48717;55.556;37.816;2024-03-23T12:07:18;97831.97;;;3.97;100.00
62655;BME280;48717;55.556;37.816;2024-03-23T12:10:04;97821.53;;;3.97;100.00
62655;BME280;48717;55.556;37.816;2024-03-23T12:12:32;97819.81;;;3.92;100.00
62655;BME280;48717;55.556;37.816;2024-03-23T12:15:06;97819.81;;;3.92;100.00
62655;BME280;48717;55.556;37.816;2024-03-23T12:17:35;97814.66;;;3.89;100.00
62655;BME280;48717;55.556;37.816;2024-03-23T12:20:02;97817.22;;;3.96;100.00
62655;BME280;48717;55.556;37.816;2024-03-23T12:22:31;97812.03;;;3.91;100.00
62655;BME280;48717;55.556;37.816;2024-03-23T12:24:57;97806.78;;;3.92;100.00
62655;BME280;48717;55.556;37.816;2024-03-23T12:27:23;97812.94;;;3.82;100.00
62655;BME280;48717;55.556;37.816;2024-03-23T12:29:50;97820.75;;;3.88;100.00
62655;BME280;48717;55.556;37.816;2024-03-23T12:32:16;97816.38;;;3.90;100.00
62655;BME280;48717;55.556;37.816;2024-03-23T12:34:42;97810.38;;;3.77;100.00
62655;BME280;48717;55.556;37.816;2024-03-23T12:37:09;97827.72;;;3.85;100.00
62655;BME280;48717;55.556;37.816;2024-03-23T12:39:39;97812.06;;;3.85;100.00
62655;BME280;48717;55.556;37.816;2024-03-23T12:42:07;97811.22;;;3.84;100.00
62655;BME280;48717;55.556;37.816;2024-03-23T12:44:33;97805.97;;;3.87;100.00
62655;BME280;48717;55.556;37.816;2024-03-23T12:47:00;97813.78;;;3.86;100.00
62655;BME280;48717;55.556;37.816;2024-03-23T12:49:26;97826.84;;;3.84;100.00
62655;BME280;48717;55.556;37.816;2024-03-23T12:51:56;97798.22;;;3.75;100.00
62655;BME280;48717;55.556;37.816;2024-03-23T12:54:22;97815.56;;;3.84;100.00
62655;BME280;48717;55.556;37.816;2024-03-23T12:56:49;97825.09;;;3.83;100.00
62655;BME280;48717;55.556;37.816;2024-03-23T12:59:15;97822.53;;;3.77;100.00
62655;BME280;48717;55.556;37.816;2024-03-23T13:01:45;97813.84;;;3.79;100.00
62655;BME280;48717;55.556;37.816;2024-03-23T13:04:11;97815.59;;;3.76;100.00
62655;BME280;48717;55.556;37.816;2024-03-23T13:06:38;97824.31;;;3.73;100.00
62655;BME280;48717;55.556;37.816;2024-03-23T13:09:05;97820.81;;;3.73;100.00
62655;BME280;48717;55.556;37.816;2024-03-23T13:11:31;97813.00;;;3.73;100.00
62655;BME280;48717;55.556;37.816;2024-03-23T13:13:58;97809.56;;;3.68;100.00
62655;BME280;48717;55.556;37.816;2024-03-23T13:16:24;97818.28;;;3.60;100.00
62655;BME280;48717;55.556;37.816;2024-03-23T13:18:51;97826.97;;;3.62;100.00
62655;BME280;48717;55.556;37.816;2024-03-23T13:21:17;97799.25;;;3.46;100.00
62655;BME280;48717;55.556;37.816;2024-03-23T13:23:47;97794.91;;;3.46;100.00
62655;BME280;48717;55.556;37.816;2024-03-23T13:26:14;97811.41;;;3.51;100.00
62655;BME280;48717;55.556;37.816;2024-03-23T13:28:40;97820.09;;;3.47;100.00
62655;BME280;48717;55.556;37.816;2024-03-23T13:31:07;97797.53;;;3.38;100.00
62655;BME280;48717;55.556;37.816;2024-03-23T13:33:34;97811.41;;;3.44;100.00
62655;BME280;48717;55.556;37.816;2024-03-23T13:36:00;97803.59;;;3.44;100.00
62655;BME280;48717;55.556;37.816;2024-03-23T13:38:27;97799.25;;;3.47;100.00
62655;BME280;48717;55.556;37.816;2024-03-23T13:40:58;97808.78;;;3.47;100.00
62655;BME280;48717;55.556;37.816;2024-03-23T13:43:26;97792.31;;;3.38;100.00
62655;BME280;48717;55.556;37.816;2024-03-23T13:45:57;97789.72;;;3.43;100.00
62655;BME280;48717;55.556;37.816;2024-03-23T13:48:25;97801.84;;;3.49;100.00
62655;BME280;48717;55.556;37.816;2024-03-23T13:51:02;97794.94;;;3.45;100.00
62655;BME280;48717;55.556;37.816;2024-03-23T13:53:29;97774.09;;;3.43;100.00
62655;BME280;48717;55.556;37.816;2024-03-23T13:55:56;97800.97;;;3.50;100.00
62655;BME280;48717;55.556;37.816;2024-03-23T13:58:22;97799.25;;;3.49;100.00